sensor_id;sensor_type;location;lat;lon;timestamp;P1;durP1;ratioP1;P2;durP2;ratioP2
14203;SDS011;7185;51.854;6.622;2023-08-06T00:02:16;16.65;;;9.82;;
14203;SDS011;7185;51.854;6.622;2023-08-06T00:04:48;16.17;;;8.88;;
14203;SDS011;7185;51.854;6.622;2023-08-06T00:07:21;17.23;;;8.85;;
14203;SDS011;7185;51.854;6.622;2023-08-06T00:09:53;15.52;;;8.48;;
14203;SDS011;7185;51.854;6.622;2023-08-06T00:12:25;11.80;;;8.27;;
14203;SDS011;7185;51.854;6.622;2023-08-06T00:15:03;12.07;;;8.05;;
14203;SDS011;7185;51.854;6.622;2023-08-06T00:18:00;12.60;;;8.52;;
14203;SDS011;7185;51.854;6.622;2023-08-06T00:20:38;16.35;;;9.60;;
14203;SDS011;7185;51.854;6.622;2023-08-06T00:23:29;14.63;;;9.48;;
14203;SDS011;7185;51.854;6.622;2023-08-06T00:26:05;12.27;;;8.88;;
14203;SDS011;7185;51.854;6.622;2023-08-06T00:28:47;13.10;;;9.50;;
14203;SDS011;7185;51.854;6.622;2023-08-06T00:31:31;13.43;;;9.00;;
14203;SDS011;7185;51.854;6.622;2023-08-06T00:34:10;16.17;;;9.85;;
14203;SDS011;7185;51.854;6.622;2023-08-06T00:36:45;14.73;;;9.18;;
14203;SDS011;7185;51.854;6.622;2023-08-06T00:39:28;16.77;;;9.57;;
14203;SDS011;7185;51.854;6.622;2023-08-06T00:42:03;15.55;;;10.73;;
14203;SDS011;7185;51.854;6.622;2023-08-06T00:44:35;16.27;;;10.45;;
14203;SDS011;7185;51.854;6.622;2023-08-06T00:47:14;15.65;;;10.10;;
14203;SDS011;7185;51.854;6.622;2023-08-06T00:49:55;21.75;;;10.52;;
14203;SDS011;7185;51.854;6.622;2023-08-06T00:52:31;13.80;;;9.38;;
14203;SDS011;7185;51.854;6.622;2023-08-06T00:55:11;17.35;;;9.43;;
14203;SDS011;7185;51.854;6.622;2023-08-06T00:57:50;14.93;;;9.07;;
14203;SDS011;7185;51.854;6.622;2023-08-06T01:00:35;11.70;;;8.45;;
14203;SDS011;7185;51.854;6.622;2023-08-06T01:03:15;14.00;;;9.20;;
14203;SDS011;7185;51.854;6.622;2023-08-06T01:05:58;13.90;;;9.52;;
14203;SDS011;7185;51.854;6.622;2023-08-06T01:09:21;18.35;;;9.57;;
14203;SDS011;7185;51.854;6.622;2023-08-06T01:12:09;13.75;;;9.60;;
14203;SDS011;7185;51.854;6.622;2023-08-06T01:15:15;13.30;;;9.57;;
14203;SDS011;7185;51.854;6.622;2023-08-06T01:18:15;15.40;;;9.55;;
14203;SDS011;7185;51.854;6.622;2023-08-06T01:21:04;14.40;;;10.18;;
14203;SDS011;7185;51.854;6.622;2023-08-06T01:23:53;16.23;;;10.35;;
14203;SDS011;7185;51.854;6.622;2023-08-06T01:26:33;14.30;;;9.73;;
14203;SDS011;7185;51.854;6.622;2023-08-06T01:29:22;16.80;;;9.27;;
14203;SDS011;7185;51.854;6.622;2023-08-06T01:35:24;13.25;;;8.70;;
14203;SDS011;7185;51.854;6.622;2023-08-06T01:42:03;13.25;;;8.85;;
14203;SDS011;7185;51.854;6.622;2023-08-06T01:48:29;16.55;;;9.65;;
14203;SDS011;7185;51.854;6.622;2023-08-06T01:52:25;19.15;;;10.43;;
14203;SDS011;7185;51.854;6.622;2023-08-06T01:55:30;15.77;;;8.82;;
14203;SDS011;7185;51.854;6.622;2023-08-06T01:58:46;14.00;;;9.50;;
14203;SDS011;7185;51.854;6.622;2023-08-06T02:09:32;16.73;;;9.57;;
14203;SDS011;7185;51.854;6.622;2023-08-06T02:15:47;17.15;;;9.77;;
14203;SDS011;7185;51.854;6.622;2023-08-06T02:18:40;12.20;;;8.40;;
14203;SDS011;7185;51.854;6.622;2023-08-06T02:22:43;12.10;;;7.50;;
14203;SDS011;7185;51.854;6.622;2023-08-06T02:28:28;16.15;;;9.68;;
14203;SDS011;7185;51.854;6.622;2023-08-06T02:31:30;14.23;;;8.52;;
14203;SDS011;7185;51.854;6.622;2023-08-06T02:34:46;15.85;;;9.02;;
14203;SDS011;7185;51.854;6.622;2023-08-06T02:38:13;12.30;;;8.52;;
14203;SDS011;7185;51.854;6.622;2023-08-06T02:41:30;11.55;;;8.80;;
14203;SDS011;7185;51.854;6.622;2023-08-06T02:44:20;12.73;;;8.48;;
14203;SDS011;7185;51.854;6.622;2023-08-06T02:58:51;11.05;;;8.05;;
14203;SDS011;7185;51.854;6.622;2023-08-06T03:02:21;20.55;;;9.85;;
14203;SDS011;7185;51.854;6.622;2023-08-06T03:04:57;12.85;;;8.32;;
14203;SDS011;7185;51.854;6.622;2023-08-06T03:11:45;13.43;;;8.43;;
14203;SDS011;7185;51.854;6.622;2023-08-06T03:22:34;13.35;;;8.18;;
14203;SDS011;7185;51.854;6.622;2023-08-06T03:25:53;13.75;;;9.80;;
14203;SDS011;7185;51.854;6.622;2023-08-06T03:29:30;16.75;;;9.93;;
14203;SDS011;7185;51.854;6.622;2023-08-06T03:49:18;12.63;;;9.25;;
14203;SDS011;7185;51.854;6.622;2023-08-06T03:56:14;15.32;;;9.00;;
14203;SDS011;7185;51.854;6.622;2023-08-06T03:59:20;13.60;;;8.50;;
14203;SDS011;7185;51.854;6.622;2023-08-06T04:05:50;14.63;;;9.13;;
14203;SDS011;7185;51.854;6.622;2023-08-06T04:09:17;15.45;;;8.85;;
14203;SDS011;7185;51.854;6.622;2023-08-06T04:12:26;14.70;;;7.68;;
14203;SDS011;7185;51.854;6.622;2023-08-06T04:16:23;12.00;;;8.05;;
14203;SDS011;7185;51.854;6.622;2023-08-06T04:19:01;11.68;;;7.88;;
14203;SDS011;7185;51.854;6.622;2023-08-06T04:22:30;10.65;;;8.10;;
14203;SDS011;7185;51.854;6.622;2023-08-06T04:26:04;15.40;;;8.27;;
14203;SDS011;7185;51.854;6.622;2023-08-06T04:32:27;15.60;;;8.48;;
14203;SDS011;7185;51.854;6.622;2023-08-06T04:35:36;12.07;;;8.38;;
14203;SDS011;7185;51.854;6.622;2023-08-06T04:39:07;15.80;;;8.82;;
14203;SDS011;7185;51.854;6.622;2023-08-06T04:42:38;14.10;;;7.90;;
14203;SDS011;7185;51.854;6.622;2023-08-06T04:45:33;12.15;;;8.77;;
14203;SDS011;7185;51.854;6.622;2023-08-06T04:51:13;10.15;;;7.32;;
14203;SDS011;7185;51.854;6.622;2023-08-06T04:57:58;11.07;;;7.60;;
14203;SDS011;7185;51.854;6.622;2023-08-06T05:01:11;13.40;;;7.38;;
14203;SDS011;7185;51.854;6.622;2023-08-06T05:04:15;12.60;;;7.03;;
14203;SDS011;7185;51.854;6.622;2023-08-06T05:07:13;14.18;;;9.00;;
14203;SDS011;7185;51.854;6.622;2023-08-06T05:17:09;11.70;;;7.65;;
14203;SDS011;7185;51.854;6.622;2023-08-06T05:19:57;10.93;;;7.73;;
14203;SDS011;7185;51.854;6.622;2023-08-06T05:23:25;8.88;;;6.38;;
14203;SDS011;7185;51.854;6.622;2023-08-06T05:26:11;16.45;;;8.43;;
14203;SDS011;7185;51.854;6.622;2023-08-06T05:32:51;15.07;;;7.55;;
14203;SDS011;7185;51.854;6.622;2023-08-06T05:35:58;27.77;;;8.40;;
14203;SDS011;7185;51.854;6.622;2023-08-06T05:39:00;11.55;;;7.68;;
14203;SDS011;7185;51.854;6.622;2023-08-06T05:41:51;10.82;;;7.80;;
14203;SDS011;7185;51.854;6.622;2023-08-06T05:48:05;12.05;;;9.30;;
14203;SDS011;7185;51.854;6.622;2023-08-06T05:50:55;13.05;;;9.07;;
14203;SDS011;7185;51.854;6.622;2023-08-06T05:54:00;15.27;;;8.93;;
14203;SDS011;7185;51.854;6.622;2023-08-06T05:57:08;13.80;;;8.55;;
14203;SDS011;7185;51.854;6.622;2023-08-06T05:59:43;13.63;;;9.27;;
14203;SDS011;7185;51.854;6.622;2023-08-06T06:02:16;16.75;;;9.85;;
14203;SDS011;7185;51.854;6.622;2023-08-06T06:04:49;14.68;;;9.10;;
14203;SDS011;7185;51.854;6.622;2023-08-06T06:07:21;15.35;;;9.45;;
14203;SDS011;7185;51.854;6.622;2023-08-06T06:09:53;14.00;;;8.32;;
14203;SDS011;7185;51.854;6.622;2023-08-06T06:12:24;14.90;;;9.25;;
14203;SDS011;7185;51.854;6.622;2023-08-06T06:14:56;12.77;;;8.55;;
14203;SDS011;7185;51.854;6.622;2023-08-06T06:17:30;13.05;;;8.80;;
14203;SDS011;7185;51.854;6.622;2023-08-06T06:20:01;14.63;;;9.52;;
14203;SDS011;7185;51.854;6.622;2023-08-06T06:22:34;14.85;;;9.38;;
14203;SDS011;7185;51.854;6.622;2023-08-06T06:25:06;15.68;;;9.82;;
14203;SDS011;7185;51.854;6.622;2023-08-06T06:27:38;15.18;;;10.05;;
14203;SDS011;7185;51.854;6.622;2023-08-06T06:30:10;15.70;;;9.70;;
14203;SDS011;7185;51.854;6.622;2023-08-06T06:32:44;13.77;;;9.63;;
14203;SDS011;7185;51.854;6.622;2023-08-06T06:35:16;16.10;;;9.75;;
14203;SDS011;7185;51.854;6.622;2023-08-06T06:37:49;13.85;;;10.43;;
14203;SDS011;7185;51.854;6.622;2023-08-06T06:40:20;19.83;;;9.90;;
14203;SDS011;7185;51.854;6.622;2023-08-06T06:42:52;12.95;;;9.60;;
14203;SDS011;7185;51.854;6.622;2023-08-06T06:45:24;15.02;;;9.82;;
14203;SDS011;7185;51.854;6.622;2023-08-06T06:47:57;15.38;;;10.60;;
14203;SDS011;7185;51.854;6.622;2023-08-06T06:50:29;11.77;;;9.23;;
14203;SDS011;7185;51.854;6.622;2023-08-06T06:53:01;14.90;;;10.18;;
14203;SDS011;7185;51.854;6.622;2023-08-06T06:55:32;14.90;;;10.10;;
14203;SDS011;7185;51.854;6.622;2023-08-06T06:58:04;14.07;;;9.05;;
14203;SDS011;7185;51.854;6.622;2023-08-06T07:00:36;11.52;;;9.60;;
14203;SDS011;7185;51.854;6.622;2023-08-06T07:03:09;12.77;;;9.63;;
14203;SDS011;7185;51.854;6.622;2023-08-06T07:05:42;12.73;;;9.15;;
14203;SDS011;7185;51.854;6.622;2023-08-06T07:08:15;11.20;;;8.13;;
14203;SDS011;7185;51.854;6.622;2023-08-06T07:10:49;12.55;;;9.43;;
14203;SDS011;7185;51.854;6.622;2023-08-06T07:13:37;11.15;;;8.40;;
14203;SDS011;7185;51.854;6.622;2023-08-06T07:16:08;13.23;;;8.55;;
14203;SDS011;7185;51.854;6.622;2023-08-06T07:18:44;12.32;;;9.48;;
14203;SDS011;7185;51.854;6.622;2023-08-06T07:21:16;12.20;;;7.95;;
14203;SDS011;7185;51.854;6.622;2023-08-06T07:23:48;12.35;;;7.90;;
14203;SDS011;7185;51.854;6.622;2023-08-06T07:26:20;12.73;;;7.57;;
14203;SDS011;7185;51.854;6.622;2023-08-06T07:28:52;14.52;;;8.43;;
14203;SDS011;7185;51.854;6.622;2023-08-06T07:31:24;12.23;;;7.72;;
14203;SDS011;7185;51.854;6.622;2023-08-06T07:33:57;10.55;;;7.82;;
14203;SDS011;7185;51.854;6.622;2023-08-06T07:36:29;11.15;;;8.70;;
14203;SDS011;7185;51.854;6.622;2023-08-06T07:39:02;11.15;;;8.50;;
14203;SDS011;7185;51.854;6.622;2023-08-06T07:41:36;10.27;;;7.93;;
14203;SDS011;7185;51.854;6.622;2023-08-06T07:44:08;10.23;;;8.02;;
14203;SDS011;7185;51.854;6.622;2023-08-06T07:46:40;9.82;;;8.15;;
14203;SDS011;7185;51.854;6.622;2023-08-06T07:49:13;14.52;;;8.93;;
14203;SDS011;7185;51.854;6.622;2023-08-06T07:51:46;13.77;;;9.52;;
14203;SDS011;7185;51.854;6.622;2023-08-06T07:54:18;13.35;;;9.25;;
14203;SDS011;7185;51.854;6.622;2023-08-06T07:56:49;12.98;;;9.25;;
14203;SDS011;7185;51.854;6.622;2023-08-06T08:13:58;9.88;;;7.20;;
14203;SDS011;7185;51.854;6.622;2023-08-06T08:16:30;11.70;;;7.68;;
14203;SDS011;7185;51.854;6.622;2023-08-06T08:19:02;11.55;;;8.00;;
14203;SDS011;7185;51.854;6.622;2023-08-06T08:21:34;12.50;;;8.40;;
14203;SDS011;7185;51.854;6.622;2023-08-06T08:24:16;10.85;;;7.43;;
14203;SDS011;7185;51.854;6.622;2023-08-06T08:26:59;12.45;;;8.25;;
14203;SDS011;7185;51.854;6.622;2023-08-06T08:33:06;10.48;;;8.18;;
14203;SDS011;7185;51.854;6.622;2023-08-06T08:35:38;14.02;;;8.60;;
14203;SDS011;7185;51.854;6.622;2023-08-06T08:38:12;11.98;;;8.20;;
14203;SDS011;7185;51.854;6.622;2023-08-06T08:40:46;15.90;;;9.25;;
14203;SDS011;7185;51.854;6.622;2023-08-06T08:43:29;13.82;;;10.45;;
14203;SDS011;7185;51.854;6.622;2023-08-06T08:46:05;14.77;;;11.82;;
14203;SDS011;7185;51.854;6.622;2023-08-06T08:48:46;15.50;;;11.98;;
14203;SDS011;7185;51.854;6.622;2023-08-06T08:51:21;15.77;;;12.50;;
14203;SDS011;7185;51.854;6.622;2023-08-06T08:53:57;18.70;;;12.90;;
14203;SDS011;7185;51.854;6.622;2023-08-06T08:56:29;15.95;;;11.98;;
14203;SDS011;7185;51.854;6.622;2023-08-06T08:59:01;19.77;;;13.18;;
14203;SDS011;7185;51.854;6.622;2023-08-06T09:01:36;14.85;;;11.88;;
14203;SDS011;7185;51.854;6.622;2023-08-06T09:04:13;17.27;;;13.30;;
14203;SDS011;7185;51.854;6.622;2023-08-06T09:06:49;17.48;;;13.27;;
14203;SDS011;7185;51.854;6.622;2023-08-06T09:09:26;17.48;;;13.52;;
14203;SDS011;7185;51.854;6.622;2023-08-06T09:12:10;20.35;;;14.82;;
14203;SDS011;7185;51.854;6.622;2023-08-06T09:14:45;21.67;;;14.75;;
14203;SDS011;7185;51.854;6.622;2023-08-06T09:17:30;18.52;;;14.07;;
14203;SDS011;7185;51.854;6.622;2023-08-06T09:20:15;19.67;;;14.95;;
14203;SDS011;7185;51.854;6.622;2023-08-06T09:23:06;20.38;;;15.52;;
14203;SDS011;7185;51.854;6.622;2023-08-06T09:25:42;24.38;;;16.35;;
14203;SDS011;7185;51.854;6.622;2023-08-06T09:29:09;17.98;;;14.65;;
14203;SDS011;7185;51.854;6.622;2023-08-06T09:32:00;22.55;;;17.38;;
14203;SDS011;7185;51.854;6.622;2023-08-06T09:35:00;22.30;;;16.83;;
14203;SDS011;7185;51.854;6.622;2023-08-06T09:37:36;19.55;;;16.38;;
14203;SDS011;7185;51.854;6.622;2023-08-06T09:43:05;21.83;;;15.02;;
14203;SDS011;7185;51.854;6.622;2023-08-06T09:45:58;23.05;;;15.77;;
14203;SDS011;7185;51.854;6.622;2023-08-06T09:48:33;19.50;;;15.38;;
14203;SDS011;7185;51.854;6.622;2023-08-06T09:51:14;22.70;;;15.90;;
14203;SDS011;7185;51.854;6.622;2023-08-06T09:53:58;21.35;;;15.05;;
14203;SDS011;7185;51.854;6.622;2023-08-06T09:56:53;19.08;;;14.20;;
14203;SDS011;7185;51.854;6.622;2023-08-06T09:59:33;19.10;;;14.80;;
14203;SDS011;7185;51.854;6.622;2023-08-06T10:02:07;18.27;;;14.55;;
14203;SDS011;7185;51.854;6.622;2023-08-06T10:04:52;16.60;;;14.00;;
14203;SDS011;7185;51.854;6.622;2023-08-06T10:07:29;14.45;;;12.77;;
14203;SDS011;7185;51.854;6.622;2023-08-06T10:10:10;15.97;;;12.60;;
14203;SDS011;7185;51.854;6.622;2023-08-06T10:12:57;12.77;;;10.57;;
14203;SDS011;7185;51.854;6.622;2023-08-06T10:15:38;11.98;;;9.90;;
14203;SDS011;7185;51.854;6.622;2023-08-06T10:18:35;11.75;;;9.90;;
14203;SDS011;7185;51.854;6.622;2023-08-06T10:24:25;12.20;;;11.00;;
14203;SDS011;7185;51.854;6.622;2023-08-06T10:30:41;13.05;;;9.88;;
14203;SDS011;7185;51.854;6.622;2023-08-06T10:33:35;9.32;;;8.38;;
14203;SDS011;7185;51.854;6.622;2023-08-06T10:37:01;10.45;;;8.40;;
14203;SDS011;7185;51.854;6.622;2023-08-06T10:39:50;9.88;;;8.88;;
14203;SDS011;7185;51.854;6.622;2023-08-06T10:42:26;9.55;;;8.38;;
14203;SDS011;7185;51.854;6.622;2023-08-06T10:45:13;9.02;;;6.78;;
14203;SDS011;7185;51.854;6.622;2023-08-06T10:47:48;8.75;;;6.00;;
14203;SDS011;7185;51.854;6.622;2023-08-06T10:50:20;7.03;;;4.60;;
14203;SDS011;7185;51.854;6.622;2023-08-06T10:52:52;6.05;;;4.47;;
14203;SDS011;7185;51.854;6.622;2023-08-06T10:55:25;5.00;;;3.75;;
14203;SDS011;7185;51.854;6.622;2023-08-06T10:58:03;6.72;;;4.82;;
14203;SDS011;7185;51.854;6.622;2023-08-06T11:00:35;7.03;;;5.70;;
14203;SDS011;7185;51.854;6.622;2023-08-06T11:03:14;6.50;;;5.75;;
14203;SDS011;7185;51.854;6.622;2023-08-06T11:05:48;8.55;;;6.40;;
14203;SDS011;7185;51.854;6.622;2023-08-06T11:08:27;9.07;;;6.50;;
14203;SDS011;7185;51.854;6.622;2023-08-06T11:11:26;8.65;;;6.85;;
14203;SDS011;7185;51.854;6.622;2023-08-06T11:14:17;7.68;;;6.15;;
14203;SDS011;7185;51.854;6.622;2023-08-06T11:17:18;12.25;;;9.45;;
14203;SDS011;7185;51.854;6.622;2023-08-06T11:20:08;7.18;;;5.95;;
14203;SDS011;7185;51.854;6.622;2023-08-06T11:23:09;8.75;;;6.68;;
14203;SDS011;7185;51.854;6.622;2023-08-06T11:25:58;7.97;;;6.18;;
14203;SDS011;7185;51.854;6.622;2023-08-06T11:28:43;7.85;;;6.30;;
14203;SDS011;7185;51.854;6.622;2023-08-06T11:31:24;6.78;;;5.80;;
14203;SDS011;7185;51.854;6.622;2023-08-06T11:37:33;7.50;;;5.00;;
14203;SDS011;7185;51.854;6.622;2023-08-06T11:47:49;3.85;;;3.00;;
14203;SDS011;7185;51.854;6.622;2023-08-06T11:50:43;8.77;;;5.85;;
14203;SDS011;7185;51.854;6.622;2023-08-06T11:57:07;10.23;;;7.55;;
14203;SDS011;7185;51.854;6.622;2023-08-06T11:59:52;10.77;;;7.05;;
14203;SDS011;7185;51.854;6.622;2023-08-06T12:02:38;6.68;;;5.63;;
14203;SDS011;7185;51.854;6.622;2023-08-06T12:05:12;6.35;;;4.43;;
14203;SDS011;7185;51.854;6.622;2023-08-06T12:10:54;4.28;;;3.28;;
14203;SDS011;7185;51.854;6.622;2023-08-06T12:13:32;3.70;;;1.98;;
14203;SDS011;7185;51.854;6.622;2023-08-06T12:16:04;4.85;;;1.80;;
14203;SDS011;7185;51.854;6.622;2023-08-06T12:18:42;4.32;;;1.60;;
14203;SDS011;7185;51.854;6.622;2023-08-06T12:21:15;4.63;;;1.70;;
14203;SDS011;7185;51.854;6.622;2023-08-06T12:23:54;3.85;;;1.55;;
14203;SDS011;7185;51.854;6.622;2023-08-06T12:26:30;4.78;;;1.40;;
14203;SDS011;7185;51.854;6.622;2023-08-06T12:29:02;3.40;;;1.20;;
14203;SDS011;7185;51.854;6.622;2023-08-06T12:31:37;3.15;;;0.93;;
14203;SDS011;7185;51.854;6.622;2023-08-06T12:34:09;1.40;;;0.98;;
14203;SDS011;7185;51.854;6.622;2023-08-06T12:36:44;2.03;;;0.90;;
14203;SDS011;7185;51.854;6.622;2023-08-06T12:39:16;1.60;;;0.93;;
14203;SDS011;7185;51.854;6.622;2023-08-06T12:41:49;1.23;;;0.60;;
14203;SDS011;7185;51.854;6.622;2023-08-06T12:44:24;1.42;;;0.80;;
14203;SDS011;7185;51.854;6.622;2023-08-06T12:46:59;1.10;;;0.70;;
14203;SDS011;7185;51.854;6.622;2023-08-06T12:49:31;1.45;;;0.73;;
14203;SDS011;7185;51.854;6.622;2023-08-06T12:52:03;1.33;;;0.80;;
14203;SDS011;7185;51.854;6.622;2023-08-06T12:54:37;0.70;;;0.60;;
14203;SDS011;7185;51.854;6.622;2023-08-06T12:57:10;1.17;;;0.57;;
14203;SDS011;7185;51.854;6.622;2023-08-06T12:59:49;1.70;;;0.80;;
14203;SDS011;7185;51.854;6.622;2023-08-06T13:02:21;1.77;;;1.10;;
14203;SDS011;7185;51.854;6.622;2023-08-06T13:04:53;1.50;;;0.93;;
14203;SDS011;7185;51.854;6.622;2023-08-06T13:07:25;1.80;;;0.95;;
14203;SDS011;7185;51.854;6.622;2023-08-06T13:09:57;2.15;;;1.30;;
14203;SDS011;7185;51.854;6.622;2023-08-06T13:12:30;1.67;;;1.00;;
14203;SDS011;7185;51.854;6.622;2023-08-06T13:15:02;2.47;;;1.27;;
14203;SDS011;7185;51.854;6.622;2023-08-06T13:17:35;2.55;;;1.13;;
14203;SDS011;7185;51.854;6.622;2023-08-06T13:20:07;1.75;;;1.10;;
14203;SDS011;7185;51.854;6.622;2023-08-06T13:22:39;3.90;;;1.23;;
14203;SDS011;7185;51.854;6.622;2023-08-06T13:25:11;1.70;;;1.10;;
14203;SDS011;7185;51.854;6.622;2023-08-06T13:33:57;2.72;;;1.30;;
14203;SDS011;7185;51.854;6.622;2023-08-06T13:36:29;2.13;;;1.17;;
14203;SDS011;7185;51.854;6.622;2023-08-06T13:39:01;2.38;;;1.20;;
14203;SDS011;7185;51.854;6.622;2023-08-06T13:41:33;2.63;;;1.60;;
14203;SDS011;7185;51.854;6.622;2023-08-06T13:44:05;2.70;;;1.48;;
14203;SDS011;7185;51.854;6.622;2023-08-06T13:46:37;2.78;;;1.60;;
14203;SDS011;7185;51.854;6.622;2023-08-06T13:49:11;2.72;;;1.60;;
14203;SDS011;7185;51.854;6.622;2023-08-06T13:51:43;3.08;;;1.45;;
14203;SDS011;7185;51.854;6.622;2023-08-06T13:54:14;4.75;;;1.88;;
14203;SDS011;7185;51.854;6.622;2023-08-06T13:56:47;4.57;;;1.73;;
14203;SDS011;7185;51.854;6.622;2023-08-06T13:59:19;4.63;;;2.10;;
14203;SDS011;7185;51.854;6.622;2023-08-06T14:01:54;4.82;;;1.95;;
14203;SDS011;7185;51.854;6.622;2023-08-06T14:04:31;3.22;;;1.90;;
14203;SDS011;7185;51.854;6.622;2023-08-06T14:07:03;4.65;;;2.00;;
14203;SDS011;7185;51.854;6.622;2023-08-06T14:09:35;4.47;;;2.15;;
14203;SDS011;7185;51.854;6.622;2023-08-06T14:12:07;4.00;;;2.08;;
14203;SDS011;7185;51.854;6.622;2023-08-06T14:14:39;2.63;;;1.90;;
14203;SDS011;7185;51.854;6.622;2023-08-06T14:17:11;3.67;;;2.30;;
14203;SDS011;7185;51.854;6.622;2023-08-06T14:19:44;2.92;;;1.90;;
14203;SDS011;7185;51.854;6.622;2023-08-06T14:22:16;4.25;;;2.50;;
14203;SDS011;7185;51.854;6.622;2023-08-06T14:24:48;7.15;;;2.60;;
14203;SDS011;7185;51.854;6.622;2023-08-06T14:27:20;5.25;;;2.53;;
14203;SDS011;7185;51.854;6.622;2023-08-06T14:29:52;4.60;;;2.65;;
14203;SDS011;7185;51.854;6.622;2023-08-06T14:32:24;4.20;;;2.50;;
14203;SDS011;7185;51.854;6.622;2023-08-06T14:34:59;4.78;;;2.50;;
14203;SDS011;7185;51.854;6.622;2023-08-06T14:37:31;8.45;;;3.03;;
14203;SDS011;7185;51.854;6.622;2023-08-06T14:40:03;4.60;;;3.20;;
14203;SDS011;7185;51.854;6.622;2023-08-06T14:42:35;4.65;;;2.70;;
14203;SDS011;7185;51.854;6.622;2023-08-06T14:45:07;5.22;;;3.03;;
14203;SDS011;7185;51.854;6.622;2023-08-06T14:47:39;6.30;;;2.97;;
14203;SDS011;7185;51.854;6.622;2023-08-06T14:50:13;4.15;;;2.92;;
14203;SDS011;7185;51.854;6.622;2023-08-06T14:55:23;5.30;;;2.88;;
14203;SDS011;7185;51.854;6.622;2023-08-06T14:57:55;5.60;;;2.90;;
14203;SDS011;7185;51.854;6.622;2023-08-06T15:00:27;6.25;;;3.00;;
14203;SDS011;7185;51.854;6.622;2023-08-06T15:03:03;6.68;;;3.58;;
14203;SDS011;7185;51.854;6.622;2023-08-06T15:05:36;9.23;;;3.50;;
14203;SDS011;7185;51.854;6.622;2023-08-06T15:08:08;5.32;;;3.22;;
14203;SDS011;7185;51.854;6.622;2023-08-06T15:10:40;5.07;;;3.53;;
14203;SDS011;7185;51.854;6.622;2023-08-06T15:13:12;4.55;;;3.20;;
14203;SDS011;7185;51.854;6.622;2023-08-06T15:15:45;6.15;;;3.88;;
14203;SDS011;7185;51.854;6.622;2023-08-06T15:18:17;5.57;;;3.35;;
14203;SDS011;7185;51.854;6.622;2023-08-06T15:20:51;7.13;;;3.80;;
14203;SDS011;7185;51.854;6.622;2023-08-06T15:23:23;8.00;;;3.88;;
14203;SDS011;7185;51.854;6.622;2023-08-06T15:25:57;8.18;;;3.85;;
14203;SDS011;7185;51.854;6.622;2023-08-06T15:28:29;5.60;;;3.60;;
14203;SDS011;7185;51.854;6.622;2023-08-06T15:31:02;8.88;;;5.20;;
14203;SDS011;7185;51.854;6.622;2023-08-06T15:33:38;7.93;;;4.60;;
14203;SDS011;7185;51.854;6.622;2023-08-06T15:36:12;10.02;;;4.72;;
14203;SDS011;7185;51.854;6.622;2023-08-06T15:38:44;9.30;;;4.50;;
14203;SDS011;7185;51.854;6.622;2023-08-06T15:41:16;7.28;;;4.72;;
14203;SDS011;7185;51.854;6.622;2023-08-06T15:43:48;9.02;;;5.40;;
14203;SDS011;7185;51.854;6.622;2023-08-06T15:46:20;8.73;;;5.30;;
14203;SDS011;7185;51.854;6.622;2023-08-06T15:48:58;8.88;;;5.43;;
14203;SDS011;7185;51.854;6.622;2023-08-06T15:51:32;9.18;;;5.53;;
14203;SDS011;7185;51.854;6.622;2023-08-06T15:54:13;10.77;;;5.80;;
14203;SDS011;7185;51.854;6.622;2023-08-06T15:56:45;7.82;;;5.43;;
14203;SDS011;7185;51.854;6.622;2023-08-06T15:59:20;11.07;;;6.30;;
14203;SDS011;7185;51.854;6.622;2023-08-06T16:01:53;9.93;;;6.07;;
14203;SDS011;7185;51.854;6.622;2023-08-06T16:04:27;12.10;;;6.45;;
14203;SDS011;7185;51.854;6.622;2023-08-06T16:07:02;8.20;;;5.68;;
14203;SDS011;7185;51.854;6.622;2023-08-06T16:09:34;13.13;;;6.75;;
14203;SDS011;7185;51.854;6.622;2023-08-06T16:12:06;12.20;;;6.72;;
14203;SDS011;7185;51.854;6.622;2023-08-06T16:14:40;12.02;;;6.32;;
14203;SDS011;7185;51.854;6.622;2023-08-06T16:17:12;11.98;;;6.75;;
14203;SDS011;7185;51.854;6.622;2023-08-06T16:19:44;12.98;;;7.43;;
14203;SDS011;7185;51.854;6.622;2023-08-06T16:22:17;10.85;;;7.00;;
14203;SDS011;7185;51.854;6.622;2023-08-06T16:24:49;13.63;;;6.88;;
14203;SDS011;7185;51.854;6.622;2023-08-06T16:27:20;11.52;;;7.07;;
14203;SDS011;7185;51.854;6.622;2023-08-06T16:29:52;11.77;;;6.47;;
14203;SDS011;7185;51.854;6.622;2023-08-06T16:32:24;10.65;;;7.07;;
14203;SDS011;7185;51.854;6.622;2023-08-06T16:34:56;10.20;;;7.25;;
14203;SDS011;7185;51.854;6.622;2023-08-06T16:37:30;10.98;;;7.13;;
14203;SDS011;7185;51.854;6.622;2023-08-06T16:40:01;11.75;;;7.20;;
14203;SDS011;7185;51.854;6.622;2023-08-06T16:42:34;12.73;;;7.40;;
14203;SDS011;7185;51.854;6.622;2023-08-06T16:45:06;11.15;;;7.25;;
14203;SDS011;7185;51.854;6.622;2023-08-06T16:47:39;12.57;;;8.07;;
14203;SDS011;7185;51.854;6.622;2023-08-06T16:50:14;16.58;;;8.35;;
14203;SDS011;7185;51.854;6.622;2023-08-06T16:53:06;11.88;;;7.30;;
14203;SDS011;7185;51.854;6.622;2023-08-06T16:55:47;9.13;;;5.85;;
14203;SDS011;7185;51.854;6.622;2023-08-06T16:58:19;7.75;;;5.80;;
14203;SDS011;7185;51.854;6.622;2023-08-06T17:00:58;8.88;;;5.28;;
14203;SDS011;7185;51.854;6.622;2023-08-06T17:03:35;9.57;;;6.05;;
14203;SDS011;7185;51.854;6.622;2023-08-06T17:06:08;10.50;;;6.57;;
14203;SDS011;7185;51.854;6.622;2023-08-06T17:08:46;9.50;;;6.25;;
14203;SDS011;7185;51.854;6.622;2023-08-06T17:11:18;9.75;;;5.88;;
14203;SDS011;7185;51.854;6.622;2023-08-06T17:13:57;7.28;;;4.97;;
14203;SDS011;7185;51.854;6.622;2023-08-06T17:16:37;6.55;;;2.80;;
14203;SDS011;7185;51.854;6.622;2023-08-06T17:19:09;5.13;;;2.55;;
14203;SDS011;7185;51.854;6.622;2023-08-06T17:21:41;7.70;;;2.38;;
14203;SDS011;7185;51.854;6.622;2023-08-06T17:24:14;4.35;;;1.92;;
14203;SDS011;7185;51.854;6.622;2023-08-06T17:26:46;5.95;;;1.55;;
14203;SDS011;7185;51.854;6.622;2023-08-06T17:29:18;5.60;;;1.60;;
14203;SDS011;7185;51.854;6.622;2023-08-06T17:31:53;6.78;;;1.40;;
14203;SDS011;7185;51.854;6.622;2023-08-06T17:34:25;6.03;;;1.60;;
14203;SDS011;7185;51.854;6.622;2023-08-06T17:36:58;5.15;;;1.48;;
14203;SDS011;7185;51.854;6.622;2023-08-06T17:39:31;6.68;;;2.00;;
14203;SDS011;7185;51.854;6.622;2023-08-06T17:44:54;7.18;;;1.27;;
14203;SDS011;7185;51.854;6.622;2023-08-06T17:47:30;6.82;;;1.35;;
14203;SDS011;7185;51.854;6.622;2023-08-06T17:50:10;8.60;;;2.13;;
14203;SDS011;7185;51.854;6.622;2023-08-06T17:52:42;6.57;;;1.73;;
14203;SDS011;7185;51.854;6.622;2023-08-06T17:55:16;8.45;;;2.10;;
14203;SDS011;7185;51.854;6.622;2023-08-06T17:57:48;5.97;;;1.55;;
14203;SDS011;7185;51.854;6.622;2023-08-06T18:00:20;4.45;;;1.92;;
14203;SDS011;7185;51.854;6.622;2023-08-06T18:02:52;6.45;;;1.50;;
14203;SDS011;7185;51.854;6.622;2023-08-06T18:05:24;9.38;;;1.98;;
14203;SDS011;7185;51.854;6.622;2023-08-06T18:08:01;7.53;;;1.75;;
14203;SDS011;7185;51.854;6.622;2023-08-06T18:10:35;5.10;;;1.73;;
14203;SDS011;7185;51.854;6.622;2023-08-06T18:13:07;5.50;;;1.45;;
14203;SDS011;7185;51.854;6.622;2023-08-06T18:15:39;7.90;;;1.90;;
14203;SDS011;7185;51.854;6.622;2023-08-06T18:18:12;6.15;;;1.20;;
14203;SDS011;7185;51.854;6.622;2023-08-06T18:20:46;6.03;;;1.52;;
14203;SDS011;7185;51.854;6.622;2023-08-06T18:23:18;8.63;;;1.42;;
14203;SDS011;7185;51.854;6.622;2023-08-06T18:25:59;6.13;;;1.15;;
14203;SDS011;7185;51.854;6.622;2023-08-06T18:28:38;7.15;;;1.08;;
14203;SDS011;7185;51.854;6.622;2023-08-06T18:31:11;11.05;;;1.63;;
14203;SDS011;7185;51.854;6.622;2023-08-06T18:33:43;6.85;;;1.27;;
14203;SDS011;7185;51.854;6.622;2023-08-06T18:36:15;5.75;;;1.10;;
14203;SDS011;7185;51.854;6.622;2023-08-06T18:38:47;4.50;;;1.25;;
14203;SDS011;7185;51.854;6.622;2023-08-06T18:41:22;3.83;;;1.02;;
14203;SDS011;7185;51.854;6.622;2023-08-06T18:44:02;7.20;;;1.27;;
14203;SDS011;7185;51.854;6.622;2023-08-06T18:46:41;4.93;;;1.17;;
14203;SDS011;7185;51.854;6.622;2023-08-06T18:49:13;5.43;;;0.90;;
14203;SDS011;7185;51.854;6.622;2023-08-06T18:51:50;3.92;;;0.80;;